Time;durP1;ratioP1;P1;durP2;ratioP2;P2;SDS_P1;SDS_P2;PMS_P1;PMS_P2;Temp;Humidity;BMP_temperature;BMP_pressure;BME280_temperature;BME280_humidity;BME280_pressure;Samples;Min_cycle;Max_cycle;Signal;HPM_P1;HPM_P2
2022/03/24 00:00:08;;;;;;;22.00;14.67;;;;;;;4.96;39.33;95761.38;4946445;28;20233;-66
2022/03/24 00:02:34;;;;;;;26.83;16.13;;;;;;;4.89;39.79;95755.72;4930484;29;20327;-66
2022/03/24 00:04:59;;;;;;;27.73;15.80;;;;;;;4.98;39.78;95755.13;4927105;28;20214;-66
2022/03/24 00:07:24;;;;;;;25.03;15.47;;;;;;;5.00;39.70;95755.06;4942045;28;20221;-65
2022/03/24 00:09:50;;;;;;;26.53;15.13;;;;;;;4.92;39.81;95747.72;4928034;29;20258;-66
2022/03/24 00:12:16;;;;;;;24.97;15.30;;;;;;;4.91;39.84;95740.00;4928808;29;20277;-66
2022/03/24 00:14:42;;;;;;;20.33;13.53;;;;;;;4.68;40.45;95744.94;4928093;29;20280;-64
2022/03/24 00:17:08;;;;;;;28.50;14.87;;;;;;;4.67;40.59;95742.41;4926971;29;20217;-63
2022/03/24 00:19:34;;;;;;;22.90;15.37;;;;;;;4.52;41.10;95739.03;4925913;29;20213;-66
2022/03/24 00:22:00;;;;;;;22.07;14.43;;;;;;;4.49;41.02;95731.38;4928457;29;20228;-63
2022/03/24 00:24:26;;;;;;;25.87;15.30;;;;;;;4.57;40.88;95735.19;4931081;29;20224;-66
2022/03/24 00:26:51;;;;;;;27.53;15.73;;;;;;;4.57;41.14;95727.38;4942955;28;20310;-62
2022/03/24 00:29:17;;;;;;;27.37;15.43;;;;;;;4.69;40.94;95723.13;4930407;29;20282;-67
2022/03/24 00:31:42;;;;;;;32.67;17.87;;;;;;;4.39;42.03;95729.38;4928110;29;20213;-66
2022/03/24 00:34:08;;;;;;;28.20;17.63;;;;;;;4.10;42.66;95725.97;4928749;29;20220;-62
2022/03/24 00:36:34;;;;;;;29.00;18.10;;;;;;;4.29;42.22;95719.63;4924328;29;20229;-65
2022/03/24 00:39:00;;;;;;;32.37;17.83;;;;;;;4.38;42.07;95721.63;4926247;29;20236;-65
2022/03/24 00:41:28;;;;;;;29.07;18.53;;;;;;;4.33;41.62;95716.75;4928625;29;20237;-65
2022/03/24 00:43:55;;;;;;;27.90;18.57;;;;;;;4.27;42.09;95714.50;4942819;29;20232;-64
2022/03/24 00:46:23;;;;;;;32.70;19.23;;;;;;;4.15;42.37;95713.53;4928222;29;20237;-66
2022/03/24 00:48:50;;;;;;;32.53;19.30;;;;;;;4.15;42.44;95710.09;4934238;29;20228;-67
2022/03/24 00:51:15;;;;;;;32.87;19.27;;;;;;;4.09;42.71;95711.31;4929765;29;20716;-62
2022/03/24 00:53:41;;;;;;;31.27;20.70;;;;;;;4.05;43.10;95709.81;4925786;29;20224;-64
2022/03/24 00:56:07;;;;;;;34.90;19.87;;;;;;;4.11;43.00;95708.59;4939055;28;20209;-63
2022/03/24 00:58:33;;;;;;;30.67;20.70;;;;;;;3.90;43.20;95701.19;4927482;29;20239;-65
2022/03/24 01:00:58;;;;;;;32.07;19.43;;;;;;;3.92;43.40;95694.09;4926091;29;20229;-66
2022/03/24 01:03:24;;;;;;;29.13;19.33;;;;;;;3.92;43.39;95696.72;4935557;29;20244;-65
2022/03/24 01:05:49;;;;;;;27.63;19.57;;;;;;;4.01;43.26;95689.28;4934700;29;20236;-67
2022/03/24 01:08:17;;;;;;;30.77;19.17;;;;;;;3.90;43.38;95690.78;4932009;29;20236;-64
2022/03/24 01:10:43;;;;;;;29.70;19.77;;;;;;;3.85;43.88;95691.97;4930628;29;20213;-68
2022/03/24 01:13:08;;;;;;;26.83;18.90;;;;;;;3.94;43.49;95692.25;4929386;29;20235;-67
2022/03/24 01:15:34;;;;;;;28.20;18.90;;;;;;;3.84;43.89;95693.75;4929988;29;20225;-68
2022/03/24 01:18:00;;;;;;;24.83;18.33;;;;;;;3.95;43.21;95701.72;4940305;29;20297;-65
2022/03/24 01:20:27;;;;;;;30.07;18.87;;;;;;;3.59;43.96;95693.59;4926384;29;20347;-65
2022/03/24 01:22:53;;;;;;;32.77;19.20;;;;;;;3.59;44.54;95702.22;4936688;29;20196;-67
2022/03/24 01:25:19;;;;;;;31.80;18.97;;;;;;;3.25;44.68;95687.78;4929966;29;20373;-64
2022/03/24 01:27:44;;;;;;;28.47;19.03;;;;;;;3.37;44.66;95694.00;4929097;29;20224;-66
2022/03/24 01:30:10;;;;;;;31.77;20.10;;;;;;;3.42;44.24;95692.84;4928035;29;20256;-68
2022/03/24 01:32:37;;;;;;;38.87;22.10;;;;;;;3.14;44.85;95678.03;4947146;28;20233;-63
2022/03/24 01:35:07;;;;;;;33.27;21.00;;;;;;;3.38;44.83;95688.75;4931275;29;20204;-66
2022/03/24 01:37:34;;;;;;;29.93;19.20;;;;;;;3.60;44.21;95677.03;4947730;28;20264;-67
2022/03/24 01:40:01;;;;;;;34.57;22.57;;;;;;;3.59;43.79;95683.19;4936072;29;20229;-65
2022/03/24 01:42:26;;;;;;;34.77;21.20;;;;;;;3.44;44.33;95683.16;4936161;29;20361;-62
2022/03/24 01:44:55;;;;;;;35.77;21.23;;;;;;;3.52;44.29;95685.31;4926565;29;20289;-67
2022/03/24 01:47:21;;;;;;;31.33;21.10;;;;;;;3.63;44.17;95676.84;4951868;28;20241;-69
2022/03/24 01:49:50;;;;;;;34.27;21.90;;;;;;;3.70;43.77;95671.19;4933580;29;20238;-64
2022/03/24 01:52:18;;;;;;;33.17;21.50;;;;;;;3.54;43.32;95666.09;4934207;29;20221;-71
2022/03/24 01:54:51;;;;;;;39.80;22.60;;;;;;;3.65;43.28;95654.19;4933644;29;20248;-64
2022/03/24 01:57:18;;;;;;;34.03;22.87;;;;;;;3.69;42.70;95668.69;4948883;28;20217;-64
2022/03/24 01:59:43;;;;;;;33.23;23.20;;;;;;;3.62;42.68;95660.41;4946745;28;20252;-66
2022/03/24 02:02:10;;;;;;;36.03;23.27;;;;;;;3.53;43.49;95655.78;4929847;29;20304;-62
2022/03/24 02:04:37;;;;;;;37.90;22.63;;;;;;;3.59;42.71;95671.00;4930138;29;20564;-68
2022/03/24 02:07:07;;;;;;;32.27;20.87;;;;;;;3.56;43.25;95675.56;4934952;29;20217;-63
2022/03/24 02:09:34;;;;;;;30.87;23.03;;;;;;;3.57;43.56;95664.22;4929939;29;20303;-66
2022/03/24 02:12:01;;;;;;;34.83;19.63;;;;;;;3.48;43.77;95674.25;4945065;28;20271;-64
2022/03/24 02:14:29;;;;;;;33.57;21.50;;;;;;;3.46;44.33;95660.50;4949288;29;20722;-62
2022/03/24 02:16:55;;;;;;;34.93;20.87;;;;;;;3.46;44.06;95665.72;4948533;29;20205;-65
2022/03/24 02:19:23;;;;;;;32.30;20.80;;;;;;;3.35;44.50;95659.50;4929144;29;20217;-66
2022/03/24 02:21:52;;;;;;;32.80;21.27;;;;;;;3.32;44.67;95665.72;4924367;29;20234;-64
2022/03/24 02:24:19;;;;;;;38.97;21.40;;;;;;;3.22;44.92;95662.81;4946356;29;20236;-66
2022/03/24 02:26:46;;;;;;;34.13;21.47;;;;;;;3.30;44.36;95654.56;4929496;29;20228;-67
2022/03/24 02:29:13;;;;;;;32.63;20.73;;;;;;;3.31;44.05;95659.69;4924888;29;20212;-66
2022/03/24 02:31:44;;;;;;;31.83;21.23;;;;;;;3.23;44.19;95654.09;4932629;29;20669;-65
2022/03/24 02:36:57;;;;;;;32.73;21.50;;;;;;;2.94;45.05;95655.84;4943904;29;21130;-65
2022/03/24 02:39:23;;;;;;;35.80;20.50;;;;;;;3.06;45.08;95657.69;4929094;29;20233;-68
2022/03/24 02:41:52;;;;;;;31.37;20.97;;;;;;;3.07;44.98;95656.78;4945200;28;20244;-66
2022/03/24 02:44:22;;;;;;;33.00;20.27;;;;;;;3.02;45.79;95661.41;4927827;29;20218;-67
2022/03/24 02:46:49;;;;;;;36.93;20.80;;;;;;;3.02;45.80;95651.03;4930473;29;20978;-66
2022/03/24 02:49:26;;;;;;;30.83;19.90;;;;;;;2.87;46.09;95652.75;4934062;29;20241;-62
2022/03/24 02:51:54;;;;;;;31.37;20.80;;;;;;;2.82;46.42;95649.56;4934306;29;20239;-66
2022/03/24 02:54:20;;;;;;;31.10;20.10;;;;;;;2.86;46.45;95645.88;4931972;29;20248;-67
2022/03/24 02:56:46;;;;;;;41.60;21.63;;;;;;;2.78;46.72;95647.22;4932355;29;20467;-67
2022/03/24 02:59:12;;;;;;;34.37;20.90;;;;;;;2.92;46.40;95649.88;4928518;29;20208;-67
2022/03/24 03:01:44;;;;;;;34.47;20.40;;;;;;;2.95;46.33;95646.28;4924055;29;20216;-63
2022/03/24 03:04:10;;;;;;;33.03;19.90;;;;;;;2.73;46.62;95644.94;4925152;29;20241;-68
2022/03/24 03:06:39;;;;;;;29.83;19.30;;;;;;;2.72;46.99;95650.19;4929942;29;20233;-64
2022/03/24 03:09:05;;;;;;;32.07;19.43;;;;;;;2.61;47.42;95646.44;4931661;29;20227;-64
2022/03/24 03:11:31;;;;;;;27.63;18.67;;;;;;;2.65;47.46;95642.78;4942008;28;20232;-66
2022/03/24 03:13:58;;;;;;;30.20;19.30;;;;;;;2.54;47.72;95637.38;4946320;28;20208;-65
2022/03/24 03:16:24;;;;;;;29.07;19.80;;;;;;;2.66;47.14;95651.38;4927393;29;20249;-65
2022/03/24 03:18:49;;;;;;;31.47;19.43;;;;;;;2.73;47.11;95649.28;4929010;29;20228;-68
2022/03/24 03:21:16;;;;;;;32.17;19.67;;;;;;;2.66;47.41;95648.78;4932720;29;20302;-64
2022/03/24 03:23:43;;;;;;;33.27;19.67;;;;;;;2.56;48.05;95648.47;4936375;29;20221;-67
2022/03/24 03:26:10;;;;;;;38.63;20.70;;;;;;;2.71;47.16;95649.38;4934630;29;20297;-67
2022/03/24 03:28:36;;;;;;;27.70;18.60;;;;;;;2.83;46.81;95647.81;4928886;29;20236;-68
2022/03/24 03:31:02;;;;;;;37.77;20.13;;;;;;;2.89;46.48;95647.47;4932904;29;20311;-69
2022/03/24 03:33:28;;;;;;;32.77;19.23;;;;;;;2.94;46.18;95648.03;4933935;29;20236;-62
2022/03/24 03:35:54;;;;;;;32.03;19.83;;;;;;;2.78;46.67;95648.09;4934673;29;20224;-68
2022/03/24 03:38:20;;;;;;;27.80;18.40;;;;;;;2.49;46.90;95633.34;4934706;29;20228;-65
2022/03/24 03:40:46;;;;;;;34.83;19.00;;;;;;;2.38;47.53;95655.56;4932998;29;20209;-64
2022/03/24 03:43:14;;;;;;;31.57;18.43;;;;;;;2.40;48.00;95658.06;4935108;29;20216;-64
2022/03/24 03:45:40;;;;;;;30.43;18.43;;;;;;;2.40;47.81;95645.91;4931178;29;20229;-63
2022/03/24 03:48:05;;;;;;;27.33;18.40;;;;;;;2.41;48.07;95651.97;4934556;29;20657;-67
2022/03/24 03:50:32;;;;;;;28.30;18.30;;;;;;;2.30;48.55;95647.38;4928196;29;20281;-65
2022/03/24 03:52:57;;;;;;;30.67;18.37;;;;;;;2.23;48.77;95647.81;4928566;29;20304;-68
2022/03/24 03:55:23;;;;;;;34.13;18.47;;;;;;;2.24;48.77;95649.47;4929029;29;20291;-69
2022/03/24 03:57:49;;;;;;;32.63;18.83;;;;;;;2.27;48.90;95649.28;4930326;29;20221;-63
2022/03/24 04:03:03;;;;;;;27.53;18.73;;;;;;;2.34;48.57;95654.03;4946225;29;20326;-66
2022/03/24 04:05:30;;;;;;;36.00;18.77;;;;;;;2.22;49.05;95649.56;4928995;29;20308;-64
2022/03/24 04:07:56;;;;;;;43.50;20.77;;;;;;;2.33;48.97;95647.19;4940954;28;20319;-67
2022/03/24 04:10:21;;;;;;;30.43;19.63;;;;;;;2.18;49.52;95642.84;4947887;28;20312;-68
2022/03/24 04:12:48;;;;;;;30.60;19.73;;;;;;;2.23;49.39;95647.81;4928455;28;20224;-64
2022/03/24 04:15:13;;;;;;;37.97;20.93;;;;;;;2.20;49.35;95649.63;4930713;28;20367;-65
2022/03/24 04:17:38;;;;;;;39.53;20.67;;;;;;;2.33;48.94;95646.38;4934029;29;20216;-68
2022/03/24 04:20:05;;;;;;;46.27;20.43;;;;;;;2.32;49.15;95645.50;4928409;29;20209;-67
2022/03/24 04:22:31;;;;;;;43.93;21.37;;;;;;;2.39;48.91;95657.22;4932841;29;20215;-68
2022/03/24 04:24:56;;;;;;;36.13;20.20;;;;;;;2.41;48.92;95650.19;4948073;28;20229;-63
2022/03/24 04:27:22;;;;;;;35.87;18.90;;;;;;;2.23;48.86;95645.22;4929088;29;20221;-68
2022/03/24 04:29:48;;;;;;;30.43;18.93;;;;;;;2.18;49.10;95653.25;4946701;28;20229;-63
2022/03/24 04:32:13;;;;;;;37.10;19.37;;;;;;;2.07;49.24;95655.59;4927774;29;20237;-68
2022/03/24 04:34:39;;;;;;;37.57;18.23;;;;;;;2.11;49.24;95652.75;4931986;29;20205;-68
2022/03/24 04:37:05;;;;;;;38.80;18.00;;;;;;;2.11;49.27;95647.56;4927637;29;20293;-63
2022/03/24 04:39:31;;;;;;;34.30;19.93;;;;;;;2.16;49.57;95649.88;4928692;29;20746;-69
2022/03/24 04:41:56;;;;;;;40.77;20.60;;;;;;;2.08;49.91;95652.06;4938761;28;20279;-64
2022/03/24 04:44:23;;;;;;;33.23;19.13;;;;;;;2.16;49.40;95642.94;4942729;28;20529;-69
2022/03/24 04:46:52;;;;;;;31.20;18.37;;;;;;;2.18;49.58;95659.25;4929162;29;20257;-67
2022/03/24 04:49:18;;;;;;;39.77;19.53;;;;;;;2.33;49.19;95647.19;4929052;29;20256;-68
2022/03/24 04:51:43;;;;;;;35.30;19.83;;;;;;;2.33;49.22;95670.56;4930292;29;20228;-64
2022/03/24 04:54:09;;;;;;;39.43;20.27;;;;;;;2.29;49.30;95660.41;4948394;28;20627;-69
2022/03/24 04:56:34;;;;;;;30.97;18.40;;;;;;;2.05;50.23;95663.44;4944567;28;20238;-65
2022/03/24 04:59:00;;;;;;;34.23;20.33;;;;;;;2.24;49.99;95665.03;4927131;29;20252;-65
2022/03/24 05:01:26;;;;;;;34.70;19.87;;;;;;;2.34;49.91;95663.59;4928579;29;20200;-63
2022/03/24 05:03:51;;;;;;;36.20;20.47;;;;;;;2.45;48.92;95663.81;4926439;29;20245;-68
2022/03/24 05:06:17;;;;;;;35.43;19.40;;;;;;;2.18;49.94;95669.63;4911045;29;20229;-69
2022/03/24 05:08:43;;;;;;;37.33;19.47;;;;;;;2.35;49.55;95670.44;4910085;29;20237;-64
2022/03/24 05:11:08;;;;;;;31.13;19.80;;;;;;;2.35;49.21;95666.13;4909462;29;20539;-62
2022/03/24 05:13:34;;;;;;;31.23;19.20;;;;;;;1.99;50.54;95668.97;4924580;29;20202;-62
2022/03/24 05:15:59;;;;;;;32.90;19.73;;;;;;;2.27;50.02;95670.03;4911885;29;20233;-63
2022/03/24 05:18:25;;;;;;;28.40;19.70;;;;;;;2.41;49.46;95662.34;4913066;29;20290;-67
2022/03/24 05:20:51;;;;;;;32.47;19.07;;;;;;;2.50;49.27;95658.38;4924733;29;20229;-64
2022/03/24 05:23:16;;;;;;;33.90;20.37;;;;;;;2.66;49.01;95672.16;4930874;29;20237;-66
2022/03/24 05:25:44;;;;;;;35.83;20.97;;;;;;;2.64;49.08;95667.03;4914401;29;20217;-67
2022/03/24 05:28:10;;;;;;;34.23;21.47;;;;;;;2.48;49.23;95661.06;4931216;29;20229;-62
2022/03/24 05:30:36;;;;;;;37.83;21.97;;;;;;;2.52;49.31;95665.16;4932289;29;20229;-67
2022/03/24 05:33:02;;;;;;;35.40;23.17;;;;;;;2.59;48.65;95655.25;4927830;29;20221;-63
2022/03/24 05:35:29;;;;;;;40.37;24.70;;;;;;;2.09;49.63;95658.94;4927554;29;20225;-67
2022/03/24 05:37:55;;;;;;;41.40;24.80;;;;;;;2.30;49.39;95649.97;4906918;29;20220;-69
2022/03/24 05:40:21;;;;;;;43.43;26.37;;;;;;;2.49;48.62;95665.34;4926618;29;20210;-67
2022/03/24 05:42:46;;;;;;;44.73;27.03;;;;;;;2.62;48.25;95655.94;4934681;29;20230;-61
2022/03/24 05:45:12;;;;;;;38.00;26.13;;;;;;;2.60;48.29;95660.38;4913355;29;20222;-65
2022/03/24 05:47:38;;;;;;;43.07;25.53;;;;;;;2.74;48.21;95664.75;4913942;29;20230;-70
2022/03/24 05:50:03;;;;;;;45.43;26.03;;;;;;;2.92;47.17;95660.28;4912961;29;20206;-66
2022/03/24 05:52:29;;;;;;;42.93;25.77;;;;;;;3.11;47.19;95654.00;4915494;29;20283;-64
2022/03/24 05:54:54;;;;;;;43.77;25.83;;;;;;;3.01;47.25;95658.91;4904573;29;20229;-68
2022/03/24 05:57:20;;;;;;;44.10;25.47;;;;;;;3.06;47.30;95657.69;4921964;29;20352;-65
2022/03/24 05:59:46;;;;;;;41.57;24.70;;;;;;;3.09;47.71;95656.69;4927936;29;20221;-65
2022/03/24 06:02:13;;;;;;;40.43;23.37;;;;;;;3.22;46.94;95656.78;4914865;29;20217;-65
2022/03/24 06:04:42;;;;;;;41.17;24.00;;;;;;;3.40;46.51;95666.09;4932304;29;20274;-66
2022/03/24 06:07:09;;;;;;;46.13;24.03;;;;;;;3.41;46.11;95651.31;4950281;28;20937;-65
2022/03/24 06:09:35;;;;;;;31.03;21.90;;;;;;;3.46;46.18;95652.72;4947399;28;20217;-64
2022/03/24 06:12:01;;;;;;;29.07;20.50;;;;;;;3.64;45.46;95655.13;4934175;29;20291;-64
2022/03/24 06:14:27;;;;;;;31.27;19.40;;;;;;;3.72;45.30;95660.69;4932976;28;20288;-62
2022/03/24 06:16:53;;;;;;;31.47;18.33;;;;;;;3.74;45.41;95664.88;4934326;29;20520;-61
2022/03/24 06:19:19;;;;;;;33.03;17.67;;;;;;;3.83;45.00;95657.44;4938977;29;20213;-66
2022/03/24 06:21:45;;;;;;;28.07;17.30;;;;;;;3.91;44.69;95653.44;4929098;28;20224;-63
2022/03/24 06:24:11;;;;;;;26.27;17.13;;;;;;;4.04;44.67;95660.47;4929051;28;20507;-63
2022/03/24 06:26:37;;;;;;;25.87;15.87;;;;;;;4.17;44.00;95657.00;4929296;29;20758;-65
2022/03/24 06:29:03;;;;;;;27.50;17.13;;;;;;;4.21;44.08;95655.03;4928445;29;20208;-66
2022/03/24 06:31:30;;;;;;;28.13;17.10;;;;;;;4.29;43.74;95655.38;4925587;29;20213;-68
2022/03/24 06:33:56;;;;;;;30.83;16.57;;;;;;;4.33;43.39;95651.66;4930257;29;20308;-65
2022/03/24 06:36:22;;;;;;;25.13;16.07;;;;;;;4.11;43.88;95646.97;4935692;29;20569;-64
2022/03/24 06:38:47;;;;;;;38.00;17.53;;;;;;;4.07;44.06;95658.50;4948410;28;20221;-64
2022/03/24 06:41:14;;;;;;;28.17;16.20;;;;;;;4.26;43.80;95650.38;4932991;29;20205;-65
2022/03/24 06:43:41;;;;;;;28.50;17.23;;;;;;;4.33;43.23;95641.25;4929474;29;20319;-65
2022/03/24 06:46:06;;;;;;;24.70;17.13;;;;;;;4.52;43.13;95642.66;4924364;29;20243;-67
2022/03/24 06:48:33;;;;;;;26.40;15.57;;;;;;;4.59;42.75;95649.94;4925376;29;20225;-69
2022/03/24 06:50:58;;;;;;;27.00;16.47;;;;;;;4.68;42.64;95640.72;4931342;29;20241;-63
2022/03/24 06:53:24;;;;;;;30.50;17.20;;;;;;;4.75;42.51;95641.97;4937183;29;20221;-65
2022/03/24 06:55:49;;;;;;;26.00;17.10;;;;;;;4.94;42.39;95640.75;4934414;29;20204;-64
2022/03/24 06:58:15;;;;;;;27.93;17.03;;;;;;;5.06;41.51;95645.16;4929232;29;20229;-63
2022/03/24 07:00:40;;;;;;;26.87;16.97;;;;;;;5.05;41.21;95638.25;4932814;29;20228;-64
2022/03/24 07:03:06;;;;;;;27.70;17.07;;;;;;;5.22;40.92;95637.16;4928848;29;20240;-64
2022/03/24 07:05:31;;;;;;;23.50;16.27;;;;;;;5.19;41.22;95634.75;4930745;29;20221;-63
2022/03/24 07:07:57;;;;;;;27.57;17.23;;;;;;;5.34;40.91;95628.47;4929175;28;20217;-63
2022/03/24 07:10:22;;;;;;;26.43;17.40;;;;;;;5.51;41.16;95636.00;4915424;29;21181;-64
2022/03/24 07:12:49;;;;;;;25.23;17.13;;;;;;;5.62;40.53;95627.41;4933207;29;20229;-62
2022/03/24 07:15:15;;;;;;;36.27;17.40;;;;;;;5.65;40.37;95635.03;4934024;29;20303;-63
2022/03/24 07:17:41;;;;;;;22.70;17.00;;;;;;;5.78;40.43;95629.78;4929111;29;20309;-63
2022/03/24 07:20:08;;;;;;;24.83;16.90;;;;;;;5.87;40.18;95631.75;4928389;29;20705;-62
2022/03/24 07:22:37;;;;;;;28.73;18.27;;;;;;;5.97;39.80;95630.19;4929296;29;20213;-67
2022/03/24 07:25:05;;;;;;;27.13;17.97;;;;;;;6.09;39.71;95632.88;4943227;28;20236;-68
2022/03/24 07:27:31;;;;;;;27.23;18.70;;;;;;;6.19;39.71;95632.09;4949341;28;20232;-68
2022/03/24 07:29:56;;;;;;;26.27;16.47;;;;;;;6.31;39.04;95629.56;4927949;29;20220;-65
2022/03/24 07:32:22;;;;;;;26.60;18.33;;;;;;;6.40;39.17;95627.13;4927831;29;20532;-67
2022/03/24 07:34:47;;;;;;;28.73;18.33;;;;;;;6.42;39.17;95632.25;4929491;29;20276;-66
2022/03/24 07:37:14;;;;;;;27.63;17.10;;;;;;;6.66;38.74;95628.78;4927112;29;20229;-65
2022/03/24 07:39:41;;;;;;;23.97;17.40;;;;;;;6.60;38.73;95620.44;4925378;29;20220;-68
2022/03/24 07:42:07;;;;;;;29.20;17.93;;;;;;;6.71;38.43;95631.88;4926140;29;20217;-67
2022/03/24 07:44:33;;;;;;;30.43;18.47;;;;;;;6.74;38.34;95622.03;4925719;29;20277;-67
2022/03/24 07:46:58;;;;;;;33.60;19.37;;;;;;;6.83;38.17;95625.75;4946922;28;20340;-68
2022/03/24 07:49:24;;;;;;;30.73;17.17;;;;;;;7.09;36.81;95615.97;4929288;29;20211;-68
2022/03/24 07:51:49;;;;;;;29.93;18.20;;;;;;;7.10;36.92;95625.47;4944617;29;20229;-65
2022/03/24 07:54:15;;;;;;;31.70;17.77;;;;;;;7.08;37.15;95624.72;4932576;29;20228;-65
2022/03/24 07:56:41;;;;;;;28.03;17.43;;;;;;;7.32;36.84;95616.81;4930024;29;20223;-65
2022/03/24 07:59:06;;;;;;;31.33;17.43;;;;;;;7.51;36.06;95619.72;4930161;29;20212;-64
2022/03/24 08:01:34;;;;;;;25.20;17.27;;;;;;;7.54;36.57;95621.25;4946501;29;20212;-64
2022/03/24 08:04:05;;;;;;;28.73;18.87;;;;;;;7.70;36.08;95613.06;4935904;29;20249;-65
2022/03/24 08:06:31;;;;;;;28.80;17.50;;;;;;;7.67;35.80;95610.63;4936375;29;20256;-66
2022/03/24 08:08:58;;;;;;;26.80;17.67;;;;;;;7.73;35.72;95607.56;4928329;29;20675;-66
2022/03/24 08:11:25;;;;;;;25.20;16.47;;;;;;;7.82;35.89;95609.44;4931189;29;20314;-67
2022/03/24 08:13:55;;;;;;;24.63;16.67;;;;;;;7.97;35.89;95611.84;4945757;28;20201;-67
2022/03/24 08:16:22;;;;;;;23.23;16.60;;;;;;;8.03;35.56;95611.34;4924883;29;20225;-66
2022/03/24 08:18:47;;;;;;;21.07;14.27;;;;;;;8.23;35.11;95607.94;4945341;29;20236;-66
2022/03/24 08:21:13;;;;;;;19.10;12.73;;;;;;;8.54;33.91;95600.28;4938137;29;20232;-65
2022/03/24 08:23:38;;;;;;;22.50;13.30;;;;;;;8.77;33.06;95603.66;4948413;28;20274;-65
2022/03/24 08:26:05;;;;;;;23.70;12.93;;;;;;;8.82;32.96;95597.06;4949654;28;20239;-66
2022/03/24 08:28:31;;;;;;;19.77;12.13;;;;;;;8.89;33.06;95593.94;4946110;28;20227;-66
2022/03/24 08:30:56;;;;;;;22.43;13.33;;;;;;;9.03;32.84;95593.59;4925145;29;20225;-66
2022/03/24 08:33:22;;;;;;;18.97;12.70;;;;;;;9.15;32.27;95584.72;4937507;29;20224;-67
2022/03/24 08:35:47;;;;;;;21.67;12.70;;;;;;;9.19;32.65;95591.34;4933770;29;20688;-67
2022/03/24 08:38:12;;;;;;;21.67;13.50;;;;;;;9.30;32.01;95587.81;4935885;29;20208;-67
2022/03/24 08:40:38;;;;;;;19.80;12.83;;;;;;;9.39;32.26;95588.84;4927811;29;20268;-67
2022/03/24 08:43:05;;;;;;;20.83;12.40;;;;;;;9.42;32.16;95585.97;4928357;29;20251;-68
2022/03/24 08:45:31;;;;;;;16.20;12.30;;;;;;;9.58;32.41;95575.81;4926754;29;20228;-63
2022/03/24 08:47:57;;;;;;;21.73;11.90;;;;;;;9.72;32.16;95579.88;4926615;29;20299;-68
2022/03/24 08:50:23;;;;;;;16.30;10.97;;;;;;;9.86;31.26;95582.16;4933258;29;20224;-67
2022/03/24 08:52:49;;;;;;;15.60;9.70;;;;;;;9.95;31.31;95575.25;4927104;29;20217;-62
2022/03/24 08:55:15;;;;;;;16.30;10.07;;;;;;;10.06;31.50;95576.94;4935203;29;20233;-62
2022/03/24 08:57:42;;;;;;;19.20;9.97;;;;;;;10.13;31.32;95575.41;4931676;29;20248;-68
2022/03/24 09:00:13;;;;;;;12.03;9.13;;;;;;;10.34;30.59;95575.34;4926743;29;20217;-65
2022/03/24 09:02:44;;;;;;;14.95;9.13;;;;;;;10.44;30.95;95578.81;4945405;28;20315;-68
2022/03/24 09:05:09;;;;;;;17.20;8.87;;;;;;;10.45;31.06;95575.25;4917585;29;20636;-65
2022/03/24 09:07:36;;;;;;;16.30;8.50;;;;;;;10.57;30.98;95565.41;4926421;29;20208;-67
2022/03/24 09:10:06;;;;;;;16.13;9.00;;;;;;;10.76;30.20;95567.22;4927399;29;20252;-65
2022/03/24 09:12:34;;;;;;;15.35;8.77;;;;;;;10.87;30.13;95564.44;4928959;29;20708;-65
2022/03/24 09:15:01;;;;;;;14.03;8.37;;;;;;;10.98;30.13;95560.81;4935621;29;20312;-65
2022/03/24 09:17:26;;;;;;;12.27;7.77;;;;;;;11.16;29.76;95558.28;4948076;29;20304;-65
2022/03/24 09:19:52;;;;;;;13.27;8.15;;;;;;;11.29;29.89;95555.34;4928845;29;20728;-67
2022/03/24 09:22:17;;;;;;;11.35;7.72;;;;;;;11.52;28.96;95561.09;4929273;29;20225;-68
2022/03/24 09:24:43;;;;;;;18.15;7.85;;;;;;;11.57;29.27;95558.84;4929735;29;20240;-64
2022/03/24 09:27:08;;;;;;;14.38;7.30;;;;;;;11.75;29.22;95556.28;4928733;29;20225;-66
2022/03/24 09:29:35;;;;;;;10.73;7.35;;;;;;;11.97;27.56;95553.28;4930623;29;20600;-66
2022/03/24 09:32:01;;;;;;;12.20;6.65;;;;;;;12.04;25.33;95548.28;4929286;29;20213;-67
2022/03/24 09:34:26;;;;;;;11.07;6.88;;;;;;;12.17;25.23;95542.66;4933541;29;20209;-68
2022/03/24 09:36:52;;;;;;;8.98;6.60;;;;;;;12.28;24.25;95531.88;4931240;29;20221;-67
2022/03/24 09:39:19;;;;;;;11.35;6.45;;;;;;;12.38;23.85;95530.03;4930951;29;20228;-66
2022/03/24 09:41:48;;;;;;;12.00;6.35;;;;;;;12.46;24.25;95534.53;4930563;29;20237;-66
2022/03/24 09:44:14;;;;;;;10.52;6.28;;;;;;;12.56;23.62;95522.09;4941663;28;20200;-67
2022/03/24 09:46:42;;;;;;;8.80;5.72;;;;;;;12.63;23.77;95517.88;4932509;29;20213;-64
2022/03/24 09:49:10;;;;;;;9.25;5.40;;;;;;;12.74;23.59;95520.25;4929592;28;20525;-64
2022/03/24 09:51:40;;;;;;;7.75;5.63;;;;;;;12.93;23.14;95518.44;4931388;29;20229;-65
2022/03/24 09:54:07;;;;;;;8.93;5.78;;;;;;;13.00;23.48;95512.38;4932426;29;20414;-64
2022/03/24 09:56:33;;;;;;;12.68;6.15;;;;;;;13.13;23.67;95513.78;4929358;29;20284;-64
2022/03/24 09:58:59;;;;;;;10.20;6.65;;;;;;;13.33;23.10;95507.34;4948886;29;20208;-64
2022/03/24 10:01:24;;;;;;;11.90;6.30;;;;;;;13.39;22.89;95509.38;4933866;29;20280;-65
2022/03/24 10:04:08;;;;;;;9.57;6.40;;;;;;;13.54;22.82;95512.22;4931200;29;20236;-64
2022/03/24 10:06:35;;;;;;;10.02;5.82;;;;;;;13.66;21.90;95497.75;4938757;29;20228;-64
2022/03/24 10:09:01;;;;;;;9.57;5.75;;;;;;;13.67;21.29;95507.34;4931228;28;20225;-66
2022/03/24 10:11:27;;;;;;;11.25;5.55;;;;;;;13.81;21.31;95502.44;4931345;29;20229;-66
2022/03/24 10:13:58;;;;;;;9.48;6.25;;;;;;;13.94;21.20;95499.34;4948160;29;20205;-65
2022/03/24 10:16:37;;;;;;;8.48;5.57;;;;;;;14.05;20.94;95489.28;4944966;29;20318;-66
2022/03/24 10:19:02;;;;;;;7.43;5.80;;;;;;;14.27;21.41;95485.22;4947769;28;20636;-64
2022/03/24 10:21:29;;;;;;;8.32;5.47;;;;;;;14.44;19.56;95486.06;4932326;29;20224;-65
2022/03/24 10:24:00;;;;;;;7.93;5.25;;;;;;;14.56;19.38;95486.59;4930923;29;20224;-66
2022/03/24 10:26:42;;;;;;;8.20;5.00;;;;;;;14.66;18.96;95481.13;4934200;29;20245;-65
2022/03/24 10:29:12;;;;;;;10.63;5.82;;;;;;;14.80;19.18;95475.16;4931474;29;20975;-66
2022/03/24 10:31:39;;;;;;;9.60;5.75;;;;;;;14.95;18.79;95473.50;4931241;29;20205;-65
2022/03/24 10:34:06;;;;;;;8.02;5.13;;;;;;;15.06;18.83;95466.22;4929420;29;20229;-67
2022/03/24 10:36:32;;;;;;;10.65;6.20;;;;;;;15.27;18.57;95463.84;4930622;29;20221;-63
2022/03/24 10:39:04;;;;;;;7.82;5.60;;;;;;;15.28;18.37;95470.78;4931331;29;20543;-69
2022/03/24 10:41:32;;;;;;;8.18;5.95;;;;;;;15.34;18.44;95458.69;4945520;28;20225;-69
2022/03/24 10:44:04;;;;;;;7.22;5.82;;;;;;;15.44;18.75;95461.97;4943616;28;20244;-69
2022/03/24 10:46:33;;;;;;;12.48;5.93;;;;;;;15.64;18.08;95449.16;4933215;29;20208;-68
2022/03/24 10:49:14;;;;;;;7.57;5.78;;;;;;;15.79;18.21;95436.81;4926894;29;20260;-70
2022/03/24 10:51:42;;;;;;;10.15;5.75;;;;;;;15.77;18.34;95449.47;4926292;28;20232;-69
2022/03/24 10:54:41;;;;;;;9.85;6.10;;;;;;;15.91;18.31;95439.94;4946034;28;20239;-69
2022/03/24 10:57:15;;;;;;;10.60;5.80;;;;;;;15.96;17.76;95437.59;4930169;29;20327;-68
2022/03/24 10:59:45;;;;;;;9.10;5.85;;;;;;;16.19;17.61;95431.47;4948196;29;20227;-68
2022/03/24 11:02:11;;;;;;;8.55;4.97;;;;;;;16.24;17.66;95421.97;4947011;28;20204;-68
2022/03/24 11:04:37;;;;;;;7.97;5.45;;;;;;;16.19;17.96;95426.97;4944560;29;20268;-66
2022/03/24 11:07:04;;;;;;;6.65;5.38;;;;;;;16.37;16.64;95425.88;4932915;29;20391;-68
2022/03/24 11:09:31;;;;;;;6.30;5.20;;;;;;;16.53;16.53;95412.47;4931123;29;20233;-64
2022/03/24 11:12:30;;;;;;;9.07;5.70;;;;;;;16.65;17.71;95420.81;4930086;29;20237;-65
2022/03/24 11:15:02;;;;;;;8.90;5.88;;;;;;;16.71;16.67;95412.97;4929400;29;20233;-65
2022/03/24 11:17:30;;;;;;;9.48;6.10;;;;;;;16.50;16.91;95412.84;4948245;28;20232;-66
2022/03/24 11:20:04;;;;;;;10.13;5.63;;;;;;;16.76;16.58;95407.97;4933482;29;20213;-64
2022/03/24 11:22:48;;;;;;;7.95;5.57;;;;;;;16.92;16.23;95400.84;4922510;29;20262;-64
2022/03/24 11:25:14;;;;;;;7.53;5.53;;;;;;;17.03;16.20;95397.75;4944220;28;20229;-65
2022/03/24 11:27:40;;;;;;;8.07;6.25;;;;;;;17.24;16.28;95393.53;4920089;28;20256;-66
2022/03/24 11:30:08;;;;;;;10.15;6.57;;;;;;;17.38;16.08;95384.75;4924404;29;20236;-67